IDs: Format: Raw Decoded Include TAF

Data at: 0732 UTC 18 Mar 2018

METAR for:KGEZ (Shelbyville Muni, IN, US)
Text:KGEZ 180653Z AUTO 36005KT 10SM CLR 00/M02 A3003 RMK AO2 SLP174 T00001022
Temperature: 0.0°C ( 32°F)
Dewpoint: -2.2°C ( 28°F) [RH = 85%]
Pressure (altimeter):30.03 inches Hg (1017.0 mb) [Sea level pressure: 1017.4 mb]
Winds:from the N (360 degrees) at 6 MPH (5 knots; 2.6 m/s)
Visibility:10 or more sm (16+ km)
Ceiling:at least 12,000 feet AGL
Clouds:sky clear below 12,000 feet AGL
QC Flag:automated observation with no human augmentation